Time;durP1;ratioP1;P1;durP2;ratioP2;P2;SDS_P1;SDS_P2;PMS_P1;PMS_P2;Temp;Humidity;BMP_temperature;BMP_pressure;BME280_temperature;BME280_humidity;BME280_pressure;Samples;Min_cycle;Max_cycle;Signal;HPM_P1;HPM_P2
2022/03/28 00:01:47;;;;;;;12.48;3.35;;;8.00;99.90;;;;;;5032729;28;20044;-87
2022/03/28 00:04:13;;;;;;;8.50;3.15;;;7.90;99.90;;;;;;5032611;28;20037;-87
2022/03/28 00:06:39;;;;;;;16.23;3.58;;;7.90;99.90;;;;;;5016285;28;20048;-87
2022/03/28 00:09:05;;;;;;;13.60;3.35;;;7.90;99.90;;;;;;5032876;28;20049;-87
2022/03/28 00:11:32;;;;;;;9.98;3.63;;;7.90;99.90;;;;;;5032636;28;20041;-87
2022/03/28 00:13:58;;;;;;;8.48;3.53;;;7.90;99.90;;;;;;5032406;28;20601;-87
2022/03/28 00:16:23;;;;;;;12.70;3.47;;;7.80;99.90;;;;;;5015991;28;20041;-87
2022/03/28 00:18:49;;;;;;;7.05;3.08;;;7.80;99.90;;;;;;5031962;28;20037;-87
2022/03/28 00:21:14;;;;;;;7.57;3.22;;;7.80;99.90;;;;;;5032295;28;20041;-87
2022/03/28 00:23:40;;;;;;;7.72;3.10;;;7.80;99.90;;;;;;5032693;28;20129;-88
2022/03/28 00:26:05;;;;;;;11.35;3.90;;;7.80;99.90;;;;;;5032176;28;20095;-88
2022/03/28 00:28:31;;;;;;;16.17;4.03;;;7.90;99.90;;;;;;5016130;28;20037;-87
2022/03/28 00:30:57;;;;;;;11.13;3.63;;;7.90;99.90;;;;;;5032364;28;20044;-87
2022/03/28 00:33:22;;;;;;;10.40;3.67;;;7.80;99.90;;;;;;5032204;28;20718;-87
2022/03/28 00:35:48;;;;;;;8.15;3.85;;;7.80;99.90;;;;;;5032468;28;20037;-87
2022/03/28 00:38:13;;;;;;;8.27;3.83;;;7.80;99.90;;;;;;5030697;28;20033;-87
2022/03/28 00:40:39;;;;;;;14.73;3.72;;;7.80;99.90;;;;;;5031937;28;20176;-87
2022/03/28 00:43:08;;;;;;;15.70;3.67;;;7.80;99.90;;;;;;5032184;28;20117;-87
2022/03/28 00:45:35;;;;;;;8.82;3.40;;;7.90;99.90;;;;;;5031785;28;20050;-87
2022/03/28 00:48:01;;;;;;;13.95;3.10;;;7.80;99.90;;;;;;5032034;28;20042;-87
2022/03/28 00:50:28;;;;;;;7.65;3.10;;;7.80;99.90;;;;;;5031809;28;20048;-87
2022/03/28 00:52:54;;;;;;;9.60;3.05;;;7.80;99.90;;;;;;5032017;28;20073;-87
2022/03/28 00:55:21;;;;;;;7.47;3.22;;;7.80;99.90;;;;;;5031873;28;20076;-87
2022/03/28 00:57:47;;;;;;;7.72;3.03;;;7.80;99.90;;;;;;5031758;28;20124;-87
2022/03/28 01:00:13;;;;;;;9.52;3.20;;;7.80;99.90;;;;;;5031793;28;20141;-87
2022/03/28 01:02:39;;;;;;;9.57;3.17;;;7.80;99.90;;;;;;5015374;28;20132;-87
2022/03/28 01:05:06;;;;;;;8.68;3.13;;;7.80;99.90;;;;;;5031426;28;20467;-87
2022/03/28 01:07:32;;;;;;;6.88;2.47;;;7.80;99.90;;;;;;5032120;28;20038;-87
2022/03/28 01:09:59;;;;;;;10.13;3.55;;;7.80;99.90;;;;;;5031505;28;20041;-87
2022/03/28 01:12:31;;;;;;;8.57;3.05;;;7.80;99.90;;;;;;5015321;28;20033;-87
2022/03/28 01:14:57;;;;;;;7.28;2.90;;;7.80;99.90;;;;;;5014883;28;20128;-87
2022/03/28 01:20:07;;;;;;;11.65;3.75;;;7.80;99.90;;;;;;5031243;28;20060;-87
2022/03/28 01:22:33;;;;;;;10.30;3.42;;;7.80;99.90;;;;;;5031152;28;20469;-88
2022/03/28 01:25:01;;;;;;;9.40;3.38;;;7.80;99.90;;;;;;5031308;28;20046;-88
2022/03/28 01:27:27;;;;;;;11.43;3.88;;;7.70;99.90;;;;;;5031040;28;20044;-88
2022/03/28 01:29:53;;;;;;;11.05;3.88;;;7.70;99.90;;;;;;5031013;28;20045;-88
2022/03/28 01:32:18;;;;;;;9.85;3.55;;;7.70;99.90;;;;;;5031351;28;20388;-88
2022/03/28 01:34:44;;;;;;;7.72;3.05;;;7.70;99.90;;;;;;5031098;28;20049;-88
2022/03/28 01:37:09;;;;;;;8.68;3.10;;;7.70;99.90;;;;;;5031364;28;20041;-88
2022/03/28 01:39:35;;;;;;;17.38;3.60;;;7.70;99.90;;;;;;5030689;28;20506;-88
2022/03/28 01:42:00;;;;;;;9.73;3.60;;;7.60;99.90;;;;;;5030763;28;20052;-88
2022/03/28 01:44:27;;;;;;;8.45;3.35;;;7.60;99.90;;;;;;5030671;28;20046;-88
2022/03/28 01:46:52;;;;;;;7.82;3.58;;;7.60;99.90;;;;;;5031100;28;20037;-88
2022/03/28 01:49:19;;;;;;;9.90;4.65;;;7.60;99.90;;;;;;5030873;28;20058;-88
2022/03/28 01:51:46;;;;;;;9.80;4.10;;;7.60;99.90;;;;;;5030814;28;20045;-88
2022/03/28 01:54:12;;;;;;;9.15;4.45;;;7.60;99.90;;;;;;5049966;28;20069;-88
2022/03/28 01:56:38;;;;;;;10.13;4.47;;;7.60;99.90;;;;;;5050435;28;20059;-88
2022/03/28 01:59:06;;;;;;;10.60;4.65;;;7.60;99.90;;;;;;5050745;28;20037;-88
2022/03/28 02:01:31;;;;;;;11.73;4.40;;;7.60;99.90;;;;;;5050429;28;20045;-87
2022/03/28 02:03:57;;;;;;;11.93;4.75;;;7.60;99.90;;;;;;5050489;28;20047;-88
2022/03/28 02:06:24;;;;;;;14.15;5.22;;;7.60;99.90;;;;;;5050341;28;20888;-88
2022/03/28 02:08:50;;;;;;;9.88;5.18;;;7.50;99.90;;;;;;5033890;28;20041;-88
2022/03/28 02:11:15;;;;;;;12.13;5.85;;;7.60;99.90;;;;;;5050133;28;20037;-88
2022/03/28 02:13:41;;;;;;;10.82;5.32;;;7.60;99.90;;;;;;5033933;28;20383;-88
2022/03/28 02:16:07;;;;;;;15.93;6.28;;;7.60;99.90;;;;;;5050540;28;20049;-88
2022/03/28 02:18:32;;;;;;;14.43;5.65;;;7.60;99.90;;;;;;5033602;28;20453;-88
2022/03/28 02:20:58;;;;;;;16.45;6.43;;;7.60;99.90;;;;;;5033465;28;20048;-87
2022/03/28 02:23:24;;;;;;;12.80;6.38;;;7.50;99.90;;;;;;5050411;28;20041;-88
2022/03/28 02:25:50;;;;;;;15.13;6.15;;;7.60;99.90;;;;;;5033561;28;20044;-87
2022/03/28 02:28:15;;;;;;;12.90;6.70;;;7.60;99.90;;;;;;5050156;28;20044;-87
2022/03/28 02:30:42;;;;;;;12.05;6.53;;;7.60;99.90;;;;;;5033372;28;20041;-87
2022/03/28 02:33:08;;;;;;;14.18;7.63;;;7.60;99.90;;;;;;5033556;28;20055;-87
2022/03/28 02:35:34;;;;;;;15.13;7.65;;;7.60;99.90;;;;;;5033191;28;20533;-87
2022/03/28 02:38:01;;;;;;;14.82;7.53;;;7.60;99.90;;;;;;5050036;28;20044;-88
2022/03/28 02:40:32;;;;;;;15.77;8.30;;;7.60;99.90;;;;;;5047760;28;20041;-87
2022/03/28 02:42:58;;;;;;;15.82;7.88;;;7.60;99.90;;;;;;5013832;28;20057;-87
2022/03/28 02:45:30;;;;;;;15.02;8.07;;;7.60;99.90;;;;;;5030341;28;20042;-88
2022/03/28 02:47:56;;;;;;;22.27;8.40;;;7.60;99.90;;;;;;5031002;28;20498;-88
2022/03/28 02:50:22;;;;;;;14.55;8.40;;;7.60;99.90;;;;;;5029909;28;20037;-88
2022/03/28 02:52:47;;;;;;;16.48;8.55;;;7.50;99.90;;;;;;5029585;28;20033;-88
2022/03/28 02:55:14;;;;;;;14.23;8.18;;;7.50;99.90;;;;;;5029561;28;20049;-88
2022/03/28 02:57:39;;;;;;;14.90;8.82;;;7.50;99.90;;;;;;5029490;28;20567;-88
2022/03/28 03:00:08;;;;;;;13.23;7.82;;;7.50;99.90;;;;;;5012895;28;20124;-88
2022/03/28 03:02:42;;;;;;;14.02;8.77;;;7.50;99.90;;;;;;5030056;28;20485;-87
2022/03/28 03:05:08;;;;;;;12.98;8.00;;;7.50;99.90;;;;;;5029908;28;20042;-88
2022/03/28 03:07:34;;;;;;;12.90;7.53;;;7.50;99.90;;;;;;5029846;28;20042;-88
2022/03/28 03:10:00;;;;;;;12.98;7.65;;;7.50;99.90;;;;;;5029865;28;20065;-88
2022/03/28 03:12:25;;;;;;;12.18;7.30;;;7.50;99.90;;;;;;5029836;28;20036;-87
2022/03/28 03:14:52;;;;;;;20.65;7.57;;;7.50;99.90;;;;;;5029639;28;20099;-88
2022/03/28 03:17:18;;;;;;;12.43;7.75;;;7.50;99.90;;;;;;5029691;28;20132;-88
2022/03/28 03:19:44;;;;;;;17.13;7.82;;;7.50;99.90;;;;;;5012762;28;20045;-88
2022/03/28 03:22:12;;;;;;;14.07;7.40;;;7.50;99.90;;;;;;5029651;28;20095;-88
2022/03/28 03:24:37;;;;;;;15.80;8.05;;;7.50;99.90;;;;;;5029684;28;20458;-88
2022/03/28 03:27:03;;;;;;;12.98;7.68;;;7.40;99.90;;;;;;5029817;28;20037;-87
2022/03/28 03:29:29;;;;;;;13.55;8.23;;;7.40;99.90;;;;;;5029816;28;20037;-88
2022/03/28 03:31:55;;;;;;;21.92;8.18;;;7.40;99.90;;;;;;5029103;28;20716;-88
2022/03/28 03:34:20;;;;;;;19.85;8.35;;;7.40;99.90;;;;;;5029489;28;20037;-87
2022/03/28 03:36:46;;;;;;;15.07;7.85;;;7.40;99.90;;;;;;5029030;28;20499;-88
2022/03/28 03:39:12;;;;;;;13.55;8.57;;;7.40;99.90;;;;;;5029550;28;20041;-87
2022/03/28 03:41:38;;;;;;;15.45;9.27;;;7.40;99.90;;;;;;5029106;28;20044;-88
2022/03/28 03:44:05;;;;;;;14.55;8.95;;;7.40;99.90;;;;;;5029674;28;20497;-88
2022/03/28 03:46:31;;;;;;;16.02;8.18;;;7.40;99.90;;;;;;5045921;28;20418;-87
2022/03/28 03:48:57;;;;;;;16.00;8.55;;;7.40;99.90;;;;;;5029526;28;20447;-87
2022/03/28 03:51:23;;;;;;;16.42;7.68;;;7.40;99.90;;;;;;5031287;28;20559;-87
2022/03/28 03:53:48;;;;;;;14.40;7.95;;;7.40;99.90;;;;;;5014772;28;20046;-87
2022/03/28 03:56:14;;;;;;;16.58;8.70;;;7.40;99.90;;;;;;5031196;28;20553;-87
2022/03/28 03:58:39;;;;;;;26.85;8.35;;;7.40;99.90;;;;;;5013847;28;20648;-87
2022/03/28 04:01:05;;;;;;;15.38;8.30;;;7.40;99.90;;;;;;5029541;28;20099;-87
2022/03/28 04:03:33;;;;;;;15.50;8.20;;;7.40;99.90;;;;;;5030029;28;20038;-87
2022/03/28 04:05:58;;;;;;;14.15;8.43;;;7.30;99.90;;;;;;5029328;28;20041;-87
2022/03/28 04:08:24;;;;;;;20.58;7.53;;;7.30;99.90;;;;;;5029549;28;20473;-87
2022/03/28 04:10:50;;;;;;;15.85;7.28;;;7.30;99.90;;;;;;5029190;28;20461;-87
2022/03/28 04:13:15;;;;;;;14.38;7.07;;;7.30;99.90;;;;;;5030511;28;20483;-87
2022/03/28 04:15:41;;;;;;;12.98;7.30;;;7.30;99.90;;;;;;5016181;28;20041;-87
2022/03/28 04:18:07;;;;;;;14.82;7.32;;;7.30;99.90;;;;;;5015705;28;20042;-87
2022/03/28 04:20:33;;;;;;;14.45;7.93;;;7.20;99.90;;;;;;5032223;28;20037;-87
2022/03/28 04:22:58;;;;;;;14.25;8.00;;;7.20;99.90;;;;;;5032831;28;20049;-87
2022/03/28 04:25:24;;;;;;;14.45;7.68;;;7.20;99.90;;;;;;5016570;28;20040;-87
2022/03/28 04:27:50;;;;;;;13.82;8.13;;;7.20;99.90;;;;;;5032756;28;20542;-87
2022/03/28 04:30:16;;;;;;;13.32;8.02;;;7.20;99.90;;;;;;5032367;28;20045;-87
2022/03/28 04:32:42;;;;;;;15.38;8.38;;;7.20;99.90;;;;;;5032286;28;20029;-87
2022/03/28 04:35:09;;;;;;;12.50;7.43;;;7.20;99.90;;;;;;5015840;28;20044;-87
2022/03/28 04:37:40;;;;;;;12.70;7.63;;;7.20;99.90;;;;;;5031876;28;20049;-87
2022/03/28 04:40:08;;;;;;;15.60;8.88;;;7.20;99.90;;;;;;5015648;28;20091;-87
2022/03/28 04:42:34;;;;;;;15.05;8.63;;;7.30;99.90;;;;;;5032309;28;20049;-87
2022/03/28 04:45:00;;;;;;;14.82;7.90;;;7.30;99.90;;;;;;5032337;28;20041;-87
2022/03/28 04:47:26;;;;;;;14.27;8.57;;;7.30;99.90;;;;;;5032590;28;20041;-87
2022/03/28 04:49:52;;;;;;;15.05;8.45;;;7.30;99.90;;;;;;5032299;28;20041;-87
2022/03/28 04:52:17;;;;;;;14.30;8.90;;;7.30;99.90;;;;;;5031824;28;20042;-87
2022/03/28 04:54:43;;;;;;;18.85;9.15;;;7.20;99.90;;;;;;5032092;28;20045;-88
2022/03/28 04:57:08;;;;;;;15.90;9.55;;;7.20;99.90;;;;;;5031661;28;20052;-87
2022/03/28 04:59:34;;;;;;;14.68;9.05;;;7.20;99.90;;;;;;5031340;28;20048;-87
2022/03/28 05:02:00;;;;;;;14.07;8.65;;;7.20;99.90;;;;;;5015295;28;20045;-88
2022/03/28 05:04:26;;;;;;;16.48;9.25;;;7.30;99.90;;;;;;5031761;28;20034;-88
2022/03/28 05:06:52;;;;;;;17.75;9.75;;;7.30;99.90;;;;;;5031850;28;20091;-88
2022/03/28 05:09:18;;;;;;;14.10;9.30;;;7.20;99.90;;;;;;5032196;28;20044;-88
2022/03/28 05:11:44;;;;;;;13.82;8.77;;;7.30;99.90;;;;;;5031534;28;20041;-87
2022/03/28 05:14:10;;;;;;;13.60;8.35;;;7.30;99.90;;;;;;5014791;28;20443;-87
2022/03/28 05:16:36;;;;;;;14.27;8.75;;;7.30;99.90;;;;;;5029859;28;20495;-87
2022/03/28 05:19:02;;;;;;;12.98;7.95;;;7.30;99.90;;;;;;5030846;28;20045;-87
2022/03/28 05:21:27;;;;;;;14.65;9.05;;;7.30;99.90;;;;;;5030214;28;20041;-87
2022/03/28 05:23:53;;;;;;;22.38;9.57;;;7.30;99.90;;;;;;5014719;28;20053;-88
2022/03/28 05:26:19;;;;;;;14.85;9.30;;;7.30;99.90;;;;;;5014859;28;20029;-88
2022/03/28 05:28:45;;;;;;;21.58;9.77;;;7.30;99.90;;;;;;5031568;28;20502;-88
2022/03/28 05:31:10;;;;;;;17.60;11.20;;;7.30;99.90;;;;;;5014873;28;20121;-88
2022/03/28 05:33:36;;;;;;;20.40;11.50;;;7.20;99.90;;;;;;5030990;28;20038;-88
2022/03/28 05:36:01;;;;;;;16.65;11.18;;;7.30;99.90;;;;;;5030763;28;20087;-88
2022/03/28 05:38:28;;;;;;;19.27;12.82;;;7.30;99.90;;;;;;5031112;28;20041;-88
2022/03/28 05:40:56;;;;;;;19.25;11.23;;;7.30;99.90;;;;;;5030785;28;20090;-88
2022/03/28 05:43:21;;;;;;;20.88;12.57;;;7.30;99.90;;;;;;5014815;28;20046;-88
2022/03/28 05:45:47;;;;;;;17.58;12.15;;;7.30;99.90;;;;;;5045274;28;20044;-87
2022/03/28 05:48:13;;;;;;;21.02;13.65;;;7.30;99.90;;;;;;5049902;28;20041;-88
2022/03/28 05:50:39;;;;;;;23.15;14.65;;;7.30;99.90;;;;;;5050650;28;20083;-88
2022/03/28 05:53:05;;;;;;;20.55;13.77;;;7.30;99.90;;;;;;5044832;28;20179;-88
2022/03/28 05:55:31;;;;;;;20.35;13.27;;;7.30;99.90;;;;;;5030659;28;20045;-88
2022/03/28 05:57:57;;;;;;;22.63;13.23;;;7.30;99.90;;;;;;5030632;28;20049;-88
2022/03/28 06:00:23;;;;;;;19.17;12.55;;;7.30;99.90;;;;;;5028727;28;20503;-88
2022/03/28 06:02:49;;;;;;;20.40;13.23;;;7.30;99.90;;;;;;5030422;28;20052;-88
2022/03/28 06:05:14;;;;;;;16.77;11.20;;;7.30;99.90;;;;;;5030320;28;20053;-88
2022/03/28 06:07:40;;;;;;;18.80;11.68;;;7.30;99.90;;;;;;5030778;28;20449;-89
2022/03/28 06:10:06;;;;;;;18.98;12.73;;;7.40;99.90;;;;;;5013535;28;20502;-89
2022/03/28 06:12:32;;;;;;;19.85;13.20;;;7.40;99.90;;;;;;5029794;28;20033;-88
2022/03/28 06:14:57;;;;;;;18.40;12.30;;;7.40;99.90;;;;;;5029398;28;20045;-88
2022/03/28 06:17:25;;;;;;;19.95;12.00;;;7.40;99.90;;;;;;5029626;28;20100;-88
2022/03/28 06:19:51;;;;;;;19.67;12.65;;;7.40;99.90;;;;;;5013129;28;20507;-89
2022/03/28 06:22:17;;;;;;;20.08;12.88;;;7.50;99.90;;;;;;5029772;28;20128;-89
2022/03/28 06:24:43;;;;;;;19.08;12.40;;;7.50;99.90;;;;;;5030177;28;20144;-89
2022/03/28 06:27:09;;;;;;;18.73;12.25;;;7.50;99.90;;;;;;5029945;28;20037;-88
2022/03/28 06:29:34;;;;;;;18.58;12.60;;;7.50;99.90;;;;;;5029607;28;20041;-88
2022/03/28 06:32:00;;;;;;;21.55;13.65;;;7.50;99.90;;;;;;5029881;28;20408;-89
2022/03/28 06:34:26;;;;;;;17.73;11.93;;;7.50;99.90;;;;;;5029906;28;20080;-88
2022/03/28 06:36:51;;;;;;;18.38;12.32;;;7.60;99.90;;;;;;5029255;28;20407;-89
2022/03/28 06:39:17;;;;;;;19.10;12.15;;;7.60;99.90;;;;;;5029592;28;20069;-88
2022/03/28 06:41:43;;;;;;;18.85;12.65;;;7.50;99.90;;;;;;5030014;28;20103;-89
2022/03/28 06:44:11;;;;;;;18.52;12.90;;;7.60;99.90;;;;;;5030168;28;20563;-88
2022/03/28 06:46:42;;;;;;;17.67;12.23;;;7.60;99.90;;;;;;5013551;28;20091;-88
2022/03/28 06:49:07;;;;;;;17.63;11.13;;;7.60;99.90;;;;;;5030083;28;20521;-88
2022/03/28 06:51:34;;;;;;;17.27;11.82;;;7.60;99.90;;;;;;5029431;28;20112;-88
2022/03/28 06:54:02;;;;;;;17.40;12.13;;;7.50;99.90;;;;;;5029882;28;20041;-88
2022/03/28 06:56:27;;;;;;;16.27;10.40;;;7.50;99.90;;;;;;5029649;28;20045;-89
2022/03/28 06:58:53;;;;;;;16.00;11.20;;;7.50;99.90;;;;;;5029205;28;20132;-88
2022/03/28 07:01:19;;;;;;;17.45;11.60;;;7.50;99.90;;;;;;5012780;28;20080;-88
2022/03/28 07:03:45;;;;;;;16.50;11.82;;;7.50;99.90;;;;;;5029541;28;20129;-88
2022/03/28 07:06:11;;;;;;;16.88;11.65;;;7.50;99.90;;;;;;5029204;28;20124;-88
2022/03/28 07:08:36;;;;;;;16.15;11.18;;;7.50;99.90;;;;;;5029839;28;20558;-89
2022/03/28 07:11:02;;;;;;;17.27;12.02;;;7.50;99.90;;;;;;5028691;28;20507;-88
2022/03/28 07:13:28;;;;;;;16.40;10.90;;;7.50;99.90;;;;;;5012974;28;20064;-89
2022/03/28 07:15:54;;;;;;;17.33;11.93;;;7.50;99.90;;;;;;5028837;28;20427;-89
2022/03/28 07:18:19;;;;;;;17.50;12.13;;;7.50;99.90;;;;;;5029109;28;20074;-89
2022/03/28 07:20:46;;;;;;;15.95;10.50;;;7.60;99.90;;;;;;5012550;28;20052;-89
2022/03/28 07:23:13;;;;;;;18.38;12.35;;;7.60;99.90;;;;;;5029572;28;20042;-89
2022/03/28 07:25:39;;;;;;;20.10;12.85;;;7.60;99.90;;;;;;5028882;28;20128;-88
2022/03/28 07:28:09;;;;;;;18.63;12.02;;;7.60;99.90;;;;;;5029169;28;20128;-88
2022/03/28 07:30:35;;;;;;;16.48;11.27;;;7.60;99.90;;;;;;5029284;28;20510;-88
2022/03/28 07:33:02;;;;;;;17.73;10.82;;;7.60;99.90;;;;;;5013166;28;20116;-88
2022/03/28 07:35:29;;;;;;;17.85;11.32;;;7.60;99.90;;;;;;5028758;28;20045;-88
2022/03/28 07:37:55;;;;;;;17.40;11.00;;;7.60;99.90;;;;;;5027771;28;20121;-89
2022/03/28 07:40:21;;;;;;;17.63;12.35;;;7.60;99.90;;;;;;5028926;28;20144;-88
2022/03/28 07:42:47;;;;;;;17.92;10.80;;;7.60;99.90;;;;;;5029426;28;20410;-88
2022/03/28 07:45:14;;;;;;;19.33;12.70;;;7.60;99.90;;;;;;5028973;28;20049;-89
2022/03/28 07:47:40;;;;;;;17.05;11.18;;;7.70;99.90;;;;;;5031096;28;20439;-88
2022/03/28 07:50:07;;;;;;;18.77;12.13;;;7.70;99.90;;;;;;5033038;28;20045;-88
2022/03/28 07:52:33;;;;;;;21.98;13.27;;;7.70;99.90;;;;;;5032742;28;20038;-88
2022/03/28 07:55:00;;;;;;;19.67;11.52;;;7.70;99.90;;;;;;5016699;28;20052;-88
2022/03/28 07:57:26;;;;;;;20.20;12.15;;;7.80;99.90;;;;;;5033309;28;20120;-87
2022/03/28 07:59:52;;;;;;;17.55;11.35;;;7.80;99.90;;;;;;5032794;28;20049;-88
2022/03/28 08:02:17;;;;;;;23.40;13.52;;;7.80;99.90;;;;;;5032876;28;20045;-88
2022/03/28 08:04:44;;;;;;;22.67;14.63;;;7.80;99.90;;;;;;5015735;28;20114;-88
2022/03/28 08:07:11;;;;;;;17.98;11.02;;;7.90;99.90;;;;;;5033122;28;20487;-88
2022/03/28 08:09:38;;;;;;;20.63;11.45;;;7.90;99.90;;;;;;5016161;28;20048;-88
2022/03/28 08:12:05;;;;;;;18.85;11.20;;;7.90;99.90;;;;;;5015968;28;20042;-88
2022/03/28 08:14:31;;;;;;;19.23;11.70;;;7.90;99.90;;;;;;5016494;28;20517;-88
2022/03/28 08:16:57;;;;;;;17.70;11.10;;;7.90;99.90;;;;;;5032564;28;20080;-88
2022/03/28 08:19:23;;;;;;;18.80;11.27;;;7.90;99.90;;;;;;5032624;28;20077;-88
2022/03/28 08:21:49;;;;;;;19.02;10.80;;;7.90;99.90;;;;;;5015748;28;20128;-87
2022/03/28 08:24:14;;;;;;;25.15;11.45;;;7.90;99.90;;;;;;5032284;28;20124;-88
2022/03/28 08:26:40;;;;;;;19.58;12.27;;;8.00;99.90;;;;;;5032337;28;20073;-88
2022/03/28 08:29:06;;;;;;;17.45;11.27;;;8.00;99.90;;;;;;5030692;28;20037;-88
2022/03/28 08:31:33;;;;;;;18.27;11.10;;;8.10;99.90;;;;;;5031603;28;20520;-88
2022/03/28 08:33:58;;;;;;;15.80;9.80;;;8.10;99.90;;;;;;5032197;28;20065;-88
2022/03/28 08:36:24;;;;;;;16.23;9.80;;;8.10;99.90;;;;;;5032278;28;20656;-87
2022/03/28 08:38:50;;;;;;;17.33;10.65;;;8.10;99.90;;;;;;5031843;28;20415;-88
2022/03/28 08:41:17;;;;;;;18.98;11.55;;;8.10;99.90;;;;;;5032056;28;20090;-88
2022/03/28 08:43:43;;;;;;;17.40;10.07;;;8.10;99.90;;;;;;5031280;28;20124;-89
2022/03/28 08:46:09;;;;;;;15.48;8.23;;;8.20;99.90;;;;;;5031806;28;20132;-88
2022/03/28 08:48:40;;;;;;;16.02;8.82;;;8.20;99.90;;;;;;5032161;28;20037;-88
2022/03/28 08:51:11;;;;;;;13.98;8.48;;;8.20;99.90;;;;;;5031123;28;20076;-88
2022/03/28 08:53:37;;;;;;;15.13;9.07;;;8.20;99.90;;;;;;5029956;28;20834;-89
2022/03/28 08:56:04;;;;;;;14.32;8.07;;;8.30;99.90;;;;;;5015498;28;20033;-88
2022/03/28 08:58:29;;;;;;;14.93;8.73;;;8.30;99.90;;;;;;5030550;28;20049;-88
2022/03/28 09:00:55;;;;;;;16.00;8.68;;;8.40;99.90;;;;;;5031013;28;20053;-88
2022/03/28 09:03:39;;;;;;;14.93;8.82;;;8.40;99.90;;;;;;5031863;28;20041;-88
2022/03/28 09:06:28;;;;;;;14.52;8.52;;;8.50;99.90;;;;;;5047845;28;20059;-88
2022/03/28 09:08:53;;;;;;;15.07;8.43;;;8.50;99.90;;;;;;5048705;28;20156;-88
2022/03/28 09:11:20;;;;;;;12.40;7.35;;;8.50;99.90;;;;;;5032896;28;20088;-88
2022/03/28 09:13:46;;;;;;;13.25;7.70;;;8.60;99.90;;;;;;5032954;28;20055;-88
2022/03/28 09:16:19;;;;;;;12.80;7.35;;;8.70;99.90;;;;;;5032814;28;20149;-88
2022/03/28 09:18:45;;;;;;;13.10;6.97;;;8.70;99.90;;;;;;5031651;28;20076;-86
2022/03/28 09:21:14;;;;;;;13.23;6.93;;;8.70;99.90;;;;;;5031650;28;20079;-87
2022/03/28 09:23:44;;;;;;;12.52;6.75;;;8.80;99.90;;;;;;5031678;28;20034;-88
2022/03/28 09:26:11;;;;;;;11.20;6.32;;;8.80;99.90;;;;;;5031509;28;20084;-88
2022/03/28 09:28:54;;;;;;;10.65;5.63;;;8.90;99.90;;;;;;5031250;28;20125;-88
2022/03/28 09:31:21;;;;;;;12.38;6.20;;;8.90;99.90;;;;;;5014328;28;20037;-88
2022/03/28 09:34:14;;;;;;;12.85;6.50;;;8.90;99.90;;;;;;5030559;28;20069;-88
2022/03/28 09:36:39;;;;;;;11.18;5.35;;;9.00;99.90;;;;;;5024880;28;20045;-88
2022/03/28 09:39:07;;;;;;;11.95;6.10;;;9.00;99.90;;;;;;5014373;28;20060;-88
2022/03/28 09:41:33;;;;;;;10.57;5.63;;;9.00;99.90;;;;;;5030927;28;20059;-88
2022/03/28 09:43:58;;;;;;;10.98;6.50;;;9.00;99.90;;;;;;5030882;28;20128;-88
2022/03/28 09:46:30;;;;;;;11.70;6.18;;;9.10;99.90;;;;;;5030498;28;20125;-88
2022/03/28 09:48:58;;;;;;;12.05;6.82;;;9.10;99.90;;;;;;5031146;28;20073;-88
2022/03/28 09:51:26;;;;;;;12.07;6.43;;;9.20;99.90;;;;;;5063459;28;20125;-88
2022/03/28 09:53:52;;;;;;;12.90;7.25;;;9.20;99.90;;;;;;5029941;28;20034;-88
2022/03/28 09:56:18;;;;;;;14.18;7.38;;;9.30;99.90;;;;;;5031035;28;20041;-89
2022/03/28 09:58:49;;;;;;;16.23;8.02;;;9.30;99.90;;;;;;5028401;28;20123;-88
2022/03/28 10:01:24;;;;;;;12.45;7.05;;;9.40;99.90;;;;;;5029846;28;20091;-88
2022/03/28 10:04:08;;;;;;;12.15;6.93;;;9.40;99.90;;;;;;5030829;28;20037;-88
2022/03/28 10:06:35;;;;;;;11.05;5.93;;;9.50;99.90;;;;;;5030675;28;20044;-88
2022/03/28 10:09:01;;;;;;;11.68;5.93;;;9.50;99.90;;;;;;5030714;28;20060;-88
2022/03/28 10:11:29;;;;;;;12.10;7.07;;;9.50;99.90;;;;;;5013314;28;20044;-88
2022/03/28 10:13:55;;;;;;;11.00;6.28;;;9.60;99.90;;;;;;5030218;28;20176;-88
2022/03/28 10:16:21;;;;;;;11.60;5.95;;;9.70;99.90;;;;;;5030453;28;20088;-88
2022/03/28 10:18:49;;;;;;;11.55;6.45;;;9.70;99.90;;;;;;5029864;28;20077;-88
2022/03/28 10:21:15;;;;;;;10.75;6.35;;;9.80;99.90;;;;;;5029768;28;20045;-88
2022/03/28 10:23:48;;;;;;;10.85;5.90;;;9.80;99.90;;;;;;5035944;28;20399;-88
2022/03/28 10:26:16;;;;;;;11.57;6.25;;;9.80;99.90;;;;;;5050176;28;20533;-89
2022/03/28 10:28:41;;;;;;;11.95;7.53;;;9.80;99.90;;;;;;5050640;28;20082;-88
2022/03/28 10:31:16;;;;;;;10.43;5.97;;;9.80;99.90;;;;;;5049332;28;20045;-88
2022/03/28 10:33:50;;;;;;;10.82;5.97;;;9.80;99.90;;;;;;5049829;28;20087;-88
2022/03/28 10:36:27;;;;;;;12.68;6.05;;;9.80;99.90;;;;;;5050385;28;20417;-88
2022/03/28 10:38:57;;;;;;;12.48;5.55;;;9.90;99.90;;;;;;5033369;28;20045;-87
2022/03/28 10:41:25;;;;;;;11.90;6.55;;;9.90;99.90;;;;;;5049876;28;20063;-87
2022/03/28 10:43:51;;;;;;;11.27;6.65;;;9.90;99.90;;;;;;5031463;28;20045;-88
2022/03/28 10:46:19;;;;;;;11.10;6.05;;;9.90;99.90;;;;;;5029667;28;20098;-87
2022/03/28 10:48:46;;;;;;;10.55;5.57;;;9.90;99.90;;;;;;5029658;28;20120;-87
2022/03/28 10:51:21;;;;;;;14.93;6.50;;;9.90;99.90;;;;;;5029398;28;20068;-87
2022/03/28 10:53:59;;;;;;;10.88;6.20;;;10.00;99.90;;;;;;5013319;28;20045;-87
2022/03/28 10:56:38;;;;;;;10.48;5.63;;;10.10;99.90;;;;;;5029942;28;20043;-88
2022/03/28 10:59:06;;;;;;;10.57;5.72;;;10.20;99.90;;;;;;5029412;28;20076;-88
2022/03/28 11:01:36;;;;;;;13.10;5.97;;;10.30;99.90;;;;;;5013006;28;20041;-87
2022/03/28 11:04:19;;;;;;;11.63;5.97;;;10.50;99.90;;;;;;5030154;28;20445;-88
2022/03/28 11:07:00;;;;;;;10.63;6.13;;;10.60;99.90;;;;;;5011974;28;20053;-88
2022/03/28 11:09:41;;;;;;;9.82;5.57;;;10.80;99.90;;;;;;5013015;28;20077;-88
2022/03/28 11:12:13;;;;;;;11.02;5.78;;;11.00;99.90;;;;;;5029112;28;20041;-88
2022/03/28 11:14:39;;;;;;;9.77;5.32;;;11.10;99.90;;;;;;5013046;28;20040;-88
2022/03/28 11:17:17;;;;;;;10.43;6.15;;;11.20;99.90;;;;;;5012104;28;20052;-88
2022/03/28 11:20:01;;;;;;;10.55;5.72;;;11.40;99.90;;;;;;5012399;28;20041;-88
2022/03/28 11:22:50;;;;;;;9.57;5.60;;;11.60;99.90;;;;;;5013155;28;20467;-88
2022/03/28 11:25:41;;;;;;;11.45;6.15;;;11.90;99.90;;;;;;5031505;28;20070;-88
2022/03/28 11:28:09;;;;;;;10.38;5.82;;;12.40;99.90;;;;;;5033450;28;20042;-88
2022/03/28 11:30:58;;;;;;;10.85;6.15;;;12.70;99.90;;;;;;5032986;28;20048;-88
2022/03/28 11:33:33;;;;;;;10.27;5.93;;;12.80;99.90;;;;;;5033672;28;20033;-87
2022/03/28 11:36:03;;;;;;;10.27;5.90;;;12.70;99.90;;;;;;5033242;28;20045;-87
2022/03/28 11:38:36;;;;;;;10.38;6.70;;;12.50;99.90;;;;;;5032891;28;20049;-88
2022/03/28 11:41:02;;;;;;;10.18;5.95;;;12.50;99.90;;;;;;5015460;28;20116;-87
2022/03/28 11:43:32;;;;;;;10.65;5.78;;;12.60;99.90;;;;;;5032550;28;20037;-87
2022/03/28 11:45:59;;;;;;;10.10;6.30;;;12.80;99.90;;;;;;5032714;28;20037;-87
2022/03/28 11:48:25;;;;;;;9.70;6.30;;;13.00;99.90;;;;;;5033378;28;20052;-87
2022/03/28 11:50:52;;;;;;;9.75;5.97;;;13.20;99.90;;;;;;5032848;28;20395;-87
2022/03/28 11:53:19;;;;;;;9.15;5.60;;;13.50;99.90;;;;;;5031966;28;20057;-88
2022/03/28 11:55:50;;;;;;;10.52;6.30;;;13.80;99.90;;;;;;5033553;28;20487;-87
2022/03/28 11:58:16;;;;;;;9.48;6.05;;;14.10;99.90;;;;;;5016323;28;20175;-88
2022/03/28 12:00:48;;;;;;;9.73;5.63;;;14.30;98.50;;;;;;5015864;28;20052;-88
2022/03/28 12:03:15;;;;;;;9.18;5.82;;;14.60;98.30;;;;;;5032459;28;20537;-88
2022/03/28 12:05:41;;;;;;;10.25;6.57;;;14.80;97.80;;;;;;5016287;28;20050;-87
2022/03/28 12:08:15;;;;;;;8.98;5.32;;;15.00;95.90;;;;;;5016771;28;20098;-88
2022/03/28 12:10:49;;;;;;;10.93;6.10;;;14.90;95.30;;;;;;5032760;28;20089;-87
2022/03/28 12:13:16;;;;;;;10.10;6.32;;;15.10;94.70;;;;;;5032209;28;20049;-87
2022/03/28 12:15:45;;;;;;;9.55;6.07;;;15.20;94.40;;;;;;5032725;28;20087;-87
2022/03/28 12:18:13;;;;;;;9.55;5.93;;;15.40;94.30;;;;;;5015711;28;20045;-87
2022/03/28 12:20:46;;;;;;;9.10;6.50;;;15.50;94.20;;;;;;5032223;28;20045;-88
2022/03/28 12:23:14;;;;;;;9.85;6.30;;;15.70;93.60;;;;;;5015477;28;20120;-87
2022/03/28 12:25:39;;;;;;;8.80;5.82;;;16.00;93.20;;;;;;5032670;28;20049;-87
2022/03/28 12:28:06;;;;;;;10.05;6.82;;;16.20;92.80;;;;;;5015575;28;20655;-87
2022/03/28 12:30:35;;;;;;;10.45;6.03;;;16.40;91.40;;;;;;5032381;28;20038;-88
2022/03/28 12:33:18;;;;;;;9.57;6.57;;;16.70;90.50;;;;;;5031459;28;20127;-88
2022/03/28 12:35:48;;;;;;;8.88;6.30;;;16.90;84.70;;;;;;5032713;28;20063;-88
2022/03/28 12:38:20;;;;;;;10.35;6.47;;;17.10;85.20;;;;;;5031985;28;20068;-88
2022/03/28 12:40:51;;;;;;;9.95;6.90;;;17.30;81.20;;;;;;5031786;28;20073;-88
2022/03/28 12:43:17;;;;;;;10.25;6.65;;;17.50;80.10;;;;;;5031300;28;20055;-88
2022/03/28 12:45:43;;;;;;;9.85;6.68;;;17.30;79.10;;;;;;5032290;28;20057;-87
2022/03/28 12:48:11;;;;;;;10.65;6.68;;;17.20;79.90;;;;;;5032219;28;20058;-88
2022/03/28 12:50:54;;;;;;;9.60;6.40;;;17.30;82.00;;;;;;5032051;28;20041;-88